Time;durP1;ratioP1;P1;durP2;ratioP2;P2;SDS_P1;SDS_P2;PMS_P1;PMS_P2;Temp;Humidity;BMP_temperature;BMP_pressure;BME280_temperature;BME280_humidity;BME280_pressure;Samples;Min_cycle;Max_cycle;Signal;HPM_P1;HPM_P2
2022/10/19 00:01:25;;;;;;;15.23;3.70;;;15.20;99.90;;;;;;5093460;28;20416;-75
2022/10/19 00:04:11;;;;;;;22.17;5.10;;;15.30;99.90;;;;;;5093447;28;20422;-74
2022/10/19 00:06:56;;;;;;;6.87;4.40;;;15.30;99.90;;;;;;5094125;28;20421;-75
2022/10/19 00:09:44;;;;;;;16.33;4.20;;;15.20;99.90;;;;;;5088689;28;20471;-75
2022/10/19 00:12:31;;;;;;;27.27;4.17;;;15.30;99.90;;;;;;5080509;28;20408;-75
2022/10/19 00:15:16;;;;;;;4.97;4.10;;;15.10;99.90;;;;;;5088675;28;20468;-75
2022/10/19 00:18:02;;;;;;;5.00;3.93;;;15.10;99.90;;;;;;5093887;28;20980;-74
2022/10/19 00:20:48;;;;;;;4.57;4.10;;;15.10;99.90;;;;;;5091399;28;20962;-75
2022/10/19 00:23:34;;;;;;;6.50;4.03;;;15.20;99.90;;;;;;5093600;28;20950;-75
2022/10/19 00:26:19;;;;;;;5.70;4.30;;;15.10;99.90;;;;;;5087099;28;20841;-75
2022/10/19 00:29:06;;;;;;;7.90;4.63;;;15.10;99.90;;;;;;5073913;28;20616;-75
2022/10/19 00:31:53;;;;;;;10.10;4.70;;;15.10;99.90;;;;;;5087313;28;20471;-75
2022/10/19 00:34:38;;;;;;;21.43;4.70;;;15.00;99.90;;;;;;5091932;28;20792;-76
2022/10/19 00:37:24;;;;;;;23.80;4.23;;;15.00;99.90;;;;;;5093685;28;20397;-75
2022/10/19 00:40:10;;;;;;;30.03;4.13;;;15.00;99.90;;;;;;5077330;28;20445;-75
2022/10/19 00:42:56;;;;;;;98.60;5.63;;;14.90;99.90;;;;;;5073180;28;20535;-75
2022/10/19 00:45:44;;;;;;;10.90;3.23;;;14.90;99.90;;;;;;5072760;28;20431;-75
2022/10/19 00:48:32;;;;;;;100.57;4.30;;;14.90;99.90;;;;;;5078943;28;20528;-76
2022/10/19 00:51:18;;;;;;;63.70;4.40;;;14.90;99.90;;;;;;5087320;28;20579;-76
2022/10/19 00:54:06;;;;;;;139.23;5.57;;;14.90;99.90;;;;;;5085031;28;20446;-76
2022/10/19 00:56:54;;;;;;;21.17;3.70;;;14.80;99.90;;;;;;5090173;28;20565;-76
2022/10/19 00:59:43;;;;;;;66.90;4.40;;;14.80;99.90;;;;;;5080508;28;20903;-76
2022/10/19 01:02:30;;;;;;;76.97;3.87;;;14.80;99.90;;;;;;5085386;28;20437;-74
2022/10/19 01:05:17;;;;;;;72.33;4.47;;;14.70;99.90;;;;;;5090181;28;20928;-76
2022/10/19 01:08:03;;;;;;;18.60;3.57;;;14.70;99.90;;;;;;5079806;28;20495;-76
2022/10/19 01:10:57;;;;;;;35.80;3.90;;;14.80;99.90;;;;;;5084308;28;20558;-75
2022/10/19 01:13:51;;;;;;;29.67;4.30;;;14.60;99.90;;;;;;5085712;28;20775;-75
2022/10/19 01:16:46;;;;;;;31.47;4.60;;;14.60;99.90;;;;;;5084788;28;20496;-75
2022/10/19 01:20:00;;;;;;;7.83;4.50;;;14.60;99.90;;;;;;5084607;28;20959;-76
2022/10/19 01:23:04;;;;;;;11.60;4.20;;;14.60;99.90;;;;;;5087921;28;20922;-75
2022/10/19 01:25:55;;;;;;;11.33;3.90;;;14.70;99.90;;;;;;5088434;28;20937;-75
2022/10/19 01:28:52;;;;;;;6.07;3.97;;;14.70;99.90;;;;;;5083414;28;20425;-76
2022/10/19 01:31:46;;;;;;;7.53;3.83;;;14.70;99.90;;;;;;5081415;28;20508;-76
2022/10/19 01:34:35;;;;;;;8.60;4.37;;;14.70;99.90;;;;;;5081614;28;20449;-76
2022/10/19 01:37:32;;;;;;;10.03;4.60;;;14.80;99.90;;;;;;5083972;28;20483;-75
2022/10/19 01:40:26;;;;;;;8.33;4.37;;;14.80;99.90;;;;;;5082690;28;20535;-76
2022/10/19 01:43:20;;;;;;;9.93;4.20;;;14.80;99.90;;;;;;5088276;28;20484;-75
2022/10/19 01:46:11;;;;;;;11.57;4.70;;;14.80;99.90;;;;;;5088213;28;20453;-76
2022/10/19 01:49:04;;;;;;;13.13;4.40;;;14.80;99.90;;;;;;5083914;28;20428;-76
2022/10/19 01:51:55;;;;;;;7.33;4.20;;;14.80;99.90;;;;;;5088291;28;20449;-75
2022/10/19 01:54:44;;;;;;;22.60;5.03;;;14.90;99.90;;;;;;5083390;28;20519;-75
2022/10/19 01:57:33;;;;;;;11.73;4.00;;;14.90;99.90;;;;;;5083949;28;20759;-76
2022/10/19 02:00:22;;;;;;;8.27;4.43;;;14.80;99.90;;;;;;5083307;28;20553;-76
2022/10/19 02:03:10;;;;;;;9.50;3.80;;;14.90;99.90;;;;;;5085573;28;21040;-75
2022/10/19 02:05:58;;;;;;;13.77;3.90;;;14.90;99.90;;;;;;5088082;28;20818;-76
2022/10/19 02:08:47;;;;;;;14.40;4.53;;;14.90;99.90;;;;;;5082167;28;20563;-75
2022/10/19 02:11:35;;;;;;;12.97;4.20;;;14.90;99.90;;;;;;5087099;28;20451;-75
2022/10/19 02:14:24;;;;;;;10.43;4.83;;;14.90;99.90;;;;;;5085736;28;20425;-76
2022/10/19 02:17:12;;;;;;;8.50;4.27;;;14.90;99.90;;;;;;5082606;28;20595;-76
2022/10/19 02:20:00;;;;;;;10.73;4.60;;;14.90;99.90;;;;;;5088619;28;20465;-76
2022/10/19 02:22:47;;;;;;;12.30;5.47;;;14.90;99.90;;;;;;5085779;28;20763;-75
2022/10/19 02:25:33;;;;;;;12.00;5.37;;;15.00;99.90;;;;;;5081174;28;20925;-76
2022/10/19 02:28:18;;;;;;;16.90;5.23;;;15.00;99.90;;;;;;5081599;28;20425;-76
2022/10/19 02:31:05;;;;;;;20.07;5.93;;;15.00;99.90;;;;;;5085652;28;20477;-76
2022/10/19 02:33:50;;;;;;;12.33;6.10;;;15.00;99.90;;;;;;5086044;28;20574;-75
2022/10/19 02:36:36;;;;;;;21.03;7.17;;;15.00;99.90;;;;;;5077884;28;20432;-75
2022/10/19 02:39:23;;;;;;;14.80;5.97;;;15.10;99.90;;;;;;5082049;28;20453;-76
2022/10/19 02:42:12;;;;;;;18.37;5.67;;;15.10;99.90;;;;;;5079381;28;20401;-76
2022/10/19 02:45:01;;;;;;;18.63;4.67;;;15.00;99.90;;;;;;5088187;28;20502;-76
2022/10/19 02:47:51;;;;;;;16.10;5.70;;;15.00;99.90;;;;;;5085448;28;20452;-75
2022/10/19 02:50:36;;;;;;;27.00;5.93;;;14.90;99.90;;;;;;5089539;28;20535;-76
2022/10/19 02:53:22;;;;;;;17.33;5.90;;;14.80;99.90;;;;;;5088363;28;20515;-75
2022/10/19 02:56:10;;;;;;;16.23;6.27;;;14.60;99.90;;;;;;5088029;28;20520;-76
2022/10/19 02:58:56;;;;;;;53.83;7.23;;;14.50;99.90;;;;;;5083906;28;22419;-75
2022/10/19 03:01:42;;;;;;;12.90;5.77;;;14.50;99.90;;;;;;5089515;28;20428;-74
2022/10/19 03:04:27;;;;;;;13.10;6.00;;;14.40;99.90;;;;;;5085496;28;20454;-76
2022/10/19 03:07:16;;;;;;;15.90;5.87;;;14.40;99.90;;;;;;5084310;28;20611;-76
2022/10/19 03:10:02;;;;;;;19.53;6.37;;;14.50;99.90;;;;;;5087884;28;21014;-76
2022/10/19 03:12:48;;;;;;;15.23;6.23;;;14.40;99.90;;;;;;5077607;28;20474;-75
2022/10/19 03:15:34;;;;;;;21.30;5.23;;;14.30;99.90;;;;;;5082945;28;20454;-75
2022/10/19 03:18:19;;;;;;;14.50;5.03;;;14.20;99.90;;;;;;5076382;28;20507;-76
2022/10/19 03:21:08;;;;;;;43.77;6.87;;;14.20;99.90;;;;;;5086750;28;20465;-75
2022/10/19 03:23:53;;;;;;;16.63;6.20;;;14.10;99.90;;;;;;5087169;28;20958;-76
2022/10/19 03:26:39;;;;;;;37.23;7.13;;;14.10;99.90;;;;;;5086304;28;20467;-75
2022/10/19 03:29:26;;;;;;;19.03;6.63;;;14.10;99.90;;;;;;5085612;28;20419;-75
2022/10/19 03:32:12;;;;;;;25.90;6.40;;;14.10;99.90;;;;;;5087082;28;20588;-76
2022/10/19 03:34:57;;;;;;;11.30;6.17;;;14.00;99.90;;;;;;5084571;28;20804;-75
2022/10/19 03:37:43;;;;;;;10.50;5.27;;;14.10;99.90;;;;;;5080008;28;20830;-76
2022/10/19 03:40:28;;;;;;;36.63;6.67;;;14.10;99.90;;;;;;5088555;28;20484;-75
2022/10/19 03:43:14;;;;;;;13.33;6.17;;;14.10;99.90;;;;;;5092353;28;20483;-75
2022/10/19 03:46:01;;;;;;;25.20;6.60;;;14.00;99.90;;;;;;5087281;28;20557;-76
2022/10/19 03:48:47;;;;;;;19.27;6.57;;;14.00;99.90;;;;;;5087686;28;20453;-76
2022/10/19 03:51:33;;;;;;;11.90;5.30;;;14.00;99.90;;;;;;5087780;28;20456;-76
2022/10/19 03:54:18;;;;;;;13.53;6.00;;;13.90;99.90;;;;;;5082834;28;20452;-76
2022/10/19 03:57:04;;;;;;;15.47;5.60;;;13.90;99.90;;;;;;5082740;28;20420;-76
2022/10/19 03:59:50;;;;;;;10.73;5.30;;;14.00;99.90;;;;;;5085301;28;20482;-75
2022/10/19 04:02:37;;;;;;;9.23;4.77;;;13.90;99.90;;;;;;5085804;28;20568;-75
2022/10/19 04:05:23;;;;;;;9.53;5.13;;;13.80;99.90;;;;;;5086238;28;20452;-75
2022/10/19 04:08:08;;;;;;;10.20;4.60;;;13.80;99.90;;;;;;5084292;28;20428;-75
2022/10/19 04:10:59;;;;;;;8.97;4.20;;;13.90;99.90;;;;;;5088059;28;20548;-75
2022/10/19 04:13:47;;;;;;;12.57;5.23;;;13.80;99.90;;;;;;5088553;28;20795;-75
2022/10/19 04:16:33;;;;;;;8.63;5.20;;;13.70;99.90;;;;;;5082745;28;20484;-76
2022/10/19 04:19:20;;;;;;;11.80;4.30;;;13.60;99.90;;;;;;5084925;28;20417;-75
2022/10/19 04:22:05;;;;;;;24.00;4.90;;;13.60;99.90;;;;;;5083008;28;20955;-75
2022/10/19 04:24:51;;;;;;;9.47;5.27;;;13.50;99.90;;;;;;5083610;28;20499;-76
2022/10/19 04:27:37;;;;;;;13.90;4.43;;;13.50;99.90;;;;;;5086759;28;20469;-75
2022/10/19 04:30:23;;;;;;;5.80;4.20;;;13.40;99.90;;;;;;5086275;28;20989;-75
2022/10/19 04:33:08;;;;;;;9.57;3.80;;;13.40;99.90;;;;;;5089271;28;20501;-76
2022/10/19 04:35:59;;;;;;;5.60;3.90;;;13.50;99.90;;;;;;5083723;28;20511;-75
2022/10/19 04:38:45;;;;;;;23.17;4.40;;;13.40;99.90;;;;;;5083839;28;20441;-76
2022/10/19 04:41:31;;;;;;;6.60;4.30;;;13.30;99.90;;;;;;5084356;28;20482;-75
2022/10/19 04:44:17;;;;;;;7.10;3.97;;;13.30;99.90;;;;;;5087818;28;20427;-75
2022/10/19 04:47:03;;;;;;;6.10;4.40;;;13.30;99.90;;;;;;5084172;28;20464;-76
2022/10/19 04:49:48;;;;;;;7.93;4.57;;;13.20;99.90;;;;;;5086359;28;20436;-76
2022/10/19 04:52:35;;;;;;;9.53;4.87;;;13.30;99.90;;;;;;5091258;28;20989;-76
2022/10/19 04:55:21;;;;;;;7.83;3.83;;;13.40;99.90;;;;;;5082223;28;20469;-76
2022/10/19 04:58:06;;;;;;;7.60;3.97;;;13.40;99.90;;;;;;5085192;28;20433;-75
2022/10/19 05:00:52;;;;;;;10.47;4.27;;;13.40;99.90;;;;;;5084746;28;20477;-74
2022/10/19 05:03:38;;;;;;;9.53;3.73;;;13.30;99.90;;;;;;5085863;28;20415;-75
2022/10/19 05:06:25;;;;;;;9.30;4.03;;;13.30;99.90;;;;;;5086911;28;20442;-75
2022/10/19 05:09:12;;;;;;;6.10;4.10;;;13.30;99.90;;;;;;5085105;28;20527;-76
2022/10/19 05:11:58;;;;;;;11.30;5.33;;;13.30;99.90;;;;;;5087671;28;20465;-75
2022/10/19 05:14:43;;;;;;;5.13;3.83;;;13.30;99.90;;;;;;5083803;28;20931;-76
2022/10/19 05:17:30;;;;;;;10.43;3.90;;;13.30;99.90;;;;;;5079999;28;20611;-76
2022/10/19 05:20:16;;;;;;;18.40;4.40;;;13.30;99.90;;;;;;5084276;28;20433;-76
2022/10/19 05:23:01;;;;;;;9.30;3.90;;;13.40;99.90;;;;;;5090575;28;20555;-76
2022/10/19 05:25:48;;;;;;;9.43;5.00;;;13.40;99.90;;;;;;5082677;28;20457;-75
2022/10/19 05:28:35;;;;;;;11.93;5.70;;;13.40;99.90;;;;;;5089364;28;20469;-75
2022/10/19 05:31:21;;;;;;;16.37;4.90;;;13.20;99.90;;;;;;5084278;28;20480;-75
2022/10/19 05:34:06;;;;;;;13.13;4.20;;;13.20;99.90;;;;;;5088415;28;20416;-76
2022/10/19 05:36:55;;;;;;;46.43;5.70;;;13.20;99.90;;;;;;5085663;28;20502;-75
2022/10/19 05:39:40;;;;;;;6.33;4.57;;;13.10;99.90;;;;;;5086890;28;20416;-75
2022/10/19 05:42:27;;;;;;;9.57;5.00;;;13.00;99.90;;;;;;5088935;28;20439;-75
2022/10/19 05:45:13;;;;;;;10.40;4.70;;;13.00;99.90;;;;;;5076405;28;20421;-75
2022/10/19 05:47:59;;;;;;;10.67;4.40;;;13.00;99.90;;;;;;5085545;28;20438;-75
2022/10/19 05:50:53;;;;;;;9.00;4.13;;;13.00;99.90;;;;;;5085871;28;20439;-75
2022/10/19 05:53:38;;;;;;;4.53;3.37;;;13.00;99.90;;;;;;5083376;28;20441;-75
2022/10/19 05:56:26;;;;;;;7.80;3.00;;;12.90;99.90;;;;;;5079228;28;20465;-76
2022/10/19 05:59:16;;;;;;;9.80;3.47;;;12.90;99.90;;;;;;5080499;28;20446;-75
2022/10/19 06:02:02;;;;;;;4.10;3.40;;;12.90;99.90;;;;;;5084101;28;20439;-75
2022/10/19 06:04:48;;;;;;;4.83;3.87;;;13.00;99.90;;;;;;5081924;28;20446;-75
2022/10/19 06:07:33;;;;;;;7.90;2.70;;;13.00;99.90;;;;;;5079769;28;20439;-75
2022/10/19 06:10:20;;;;;;;22.07;5.40;;;13.10;99.90;;;;;;5086043;28;20457;-75
2022/10/19 06:13:05;;;;;;;14.67;3.80;;;13.10;99.90;;;;;;5082904;28;20519;-75
2022/10/19 06:15:52;;;;;;;10.10;4.30;;;13.00;99.90;;;;;;5086260;28;20437;-75
2022/10/19 06:18:38;;;;;;;8.60;4.70;;;13.10;99.90;;;;;;5083111;28;20454;-74
2022/10/19 06:21:26;;;;;;;8.43;5.17;;;13.10;99.90;;;;;;5089990;28;20493;-75
2022/10/19 06:24:12;;;;;;;8.83;4.50;;;13.10;99.90;;;;;;5079955;28;20496;-75
2022/10/19 06:26:57;;;;;;;8.77;4.33;;;13.00;99.90;;;;;;5083304;28;20934;-75
2022/10/19 06:29:43;;;;;;;13.73;4.30;;;12.90;99.90;;;;;;5082429;28;20450;-75
2022/10/19 06:32:32;;;;;;;6.83;4.60;;;13.00;99.90;;;;;;5078928;28;20497;-77
2022/10/19 06:35:18;;;;;;;7.47;4.00;;;13.00;99.90;;;;;;5081643;28;20457;-76
2022/10/19 06:38:04;;;;;;;16.43;5.50;;;13.00;99.90;;;;;;5087902;28;20439;-76
2022/10/19 06:40:50;;;;;;;6.87;4.40;;;13.00;99.90;;;;;;5093376;28;22587;-76
2022/10/19 06:43:36;;;;;;;10.57;4.47;;;13.00;99.90;;;;;;5079623;28;20551;-77
2022/10/19 06:46:23;;;;;;;13.00;5.97;;;13.10;99.90;;;;;;5074698;28;20417;-76
2022/10/19 06:49:13;;;;;;;10.50;4.70;;;13.20;99.90;;;;;;5075224;28;20401;-77
2022/10/19 06:51:59;;;;;;;8.00;4.80;;;13.20;99.90;;;;;;5094375;28;20427;-76
2022/10/19 06:54:45;;;;;;;8.40;5.50;;;13.30;99.90;;;;;;5085165;28;20902;-76
2022/10/19 06:57:30;;;;;;;62.40;7.50;;;13.20;99.90;;;;;;5084445;28;20535;-77
2022/10/19 07:00:17;;;;;;;11.07;5.70;;;13.10;99.90;;;;;;5078080;28;20443;-75
2022/10/19 07:03:02;;;;;;;14.63;5.07;;;13.00;99.90;;;;;;5082646;28;20788;-75
2022/10/19 07:05:54;;;;;;;11.80;5.00;;;13.00;99.90;;;;;;5082345;28;20474;-77
2022/10/19 07:08:41;;;;;;;8.90;4.40;;;13.10;99.90;;;;;;5085803;28;20453;-77
2022/10/19 07:11:27;;;;;;;7.43;4.40;;;13.00;99.90;;;;;;5092962;28;20914;-77
2022/10/19 07:14:12;;;;;;;5.67;4.70;;;13.10;99.90;;;;;;5081551;28;20814;-77
2022/10/19 07:16:58;;;;;;;7.53;4.30;;;13.30;99.90;;;;;;5085270;28;20421;-76
2022/10/19 07:19:44;;;;;;;17.57;4.80;;;13.30;99.90;;;;;;5078130;28;20425;-77
2022/10/19 07:22:31;;;;;;;6.37;4.33;;;13.40;99.90;;;;;;5082613;28;20781;-76
2022/10/19 07:25:17;;;;;;;5.57;4.47;;;13.50;99.90;;;;;;5085397;28;20401;-77
2022/10/19 07:28:03;;;;;;;5.80;4.37;;;13.60;99.90;;;;;;5086123;28;20400;-76
2022/10/19 07:30:48;;;;;;;8.57;4.23;;;13.80;99.90;;;;;;5093590;28;20481;-76
2022/10/19 07:33:34;;;;;;;7.83;5.83;;;13.90;99.90;;;;;;5083079;28;20968;-77
2022/10/19 07:36:20;;;;;;;11.00;6.47;;;13.90;99.90;;;;;;5087941;28;20401;-77
2022/10/19 07:39:09;;;;;;;27.47;6.67;;;14.00;99.90;;;;;;5086385;28;20422;-76
2022/10/19 07:41:54;;;;;;;11.10;6.37;;;14.10;99.90;;;;;;5097592;28;20416;-77
2022/10/19 07:44:40;;;;;;;8.47;6.13;;;14.20;99.90;;;;;;5090089;28;20428;-76
2022/10/19 07:47:25;;;;;;;7.53;5.70;;;14.20;99.90;;;;;;5098467;28;20419;-77
2022/10/19 07:50:11;;;;;;;9.13;7.30;;;14.20;99.90;;;;;;5088494;28;20489;-77
2022/10/19 07:52:57;;;;;;;8.33;7.40;;;14.20;99.90;;;;;;5094857;28;20582;-76
2022/10/19 07:55:44;;;;;;;12.27;8.20;;;14.20;99.90;;;;;;5086842;28;20824;-76
2022/10/19 07:58:30;;;;;;;14.73;8.37;;;14.20;99.90;;;;;;5097844;28;20567;-76
2022/10/19 08:01:17;;;;;;;13.40;8.70;;;14.20;99.90;;;;;;5085617;28;20474;-77
2022/10/19 08:04:03;;;;;;;10.60;8.37;;;14.20;99.90;;;;;;5089586;28;20438;-76
2022/10/19 08:06:49;;;;;;;13.40;8.10;;;14.20;99.90;;;;;;5084484;28;20451;-77
2022/10/19 08:09:34;;;;;;;12.63;9.33;;;14.20;99.90;;;;;;5094756;28;20560;-77
2022/10/19 08:12:22;;;;;;;13.00;8.37;;;14.10;99.90;;;;;;5084220;28;20785;-76
2022/10/19 08:15:08;;;;;;;25.03;10.43;;;14.10;99.90;;;;;;5091712;28;20449;-76
2022/10/19 08:17:53;;;;;;;17.70;12.10;;;14.20;99.90;;;;;;5090996;28;20436;-76
2022/10/19 08:20:40;;;;;;;21.40;10.00;;;14.30;99.90;;;;;;5085302;28;20533;-77
2022/10/19 08:23:27;;;;;;;16.43;11.20;;;14.40;99.90;;;;;;5086181;28;20827;-77
2022/10/19 08:26:12;;;;;;;13.57;10.90;;;14.50;99.90;;;;;;5085631;28;20906;-77
2022/10/19 08:29:04;;;;;;;15.70;11.00;;;14.60;99.90;;;;;;5085025;28;20418;-77
2022/10/19 08:31:50;;;;;;;14.93;10.73;;;14.70;99.90;;;;;;5092763;28;20461;-76
2022/10/19 08:34:35;;;;;;;22.33;12.33;;;14.80;99.90;;;;;;5085110;28;20488;-77
2022/10/19 08:37:21;;;;;;;19.83;12.30;;;14.90;99.90;;;;;;5086978;28;20418;-77
2022/10/19 08:40:17;;;;;;;19.23;12.37;;;15.00;99.90;;;;;;5079189;28;21000;-77
2022/10/19 08:43:10;;;;;;;15.67;9.27;;;15.20;99.90;;;;;;5092071;28;20500;-76
2022/10/19 08:46:03;;;;;;;15.00;10.93;;;15.30;99.90;;;;;;5086003;28;20445;-76
2022/10/19 08:48:49;;;;;;;11.90;9.30;;;15.50;99.90;;;;;;5086754;28;20431;-76
2022/10/19 08:51:40;;;;;;;11.53;8.07;;;15.60;99.90;;;;;;5086687;28;20924;-75
2022/10/19 08:54:35;;;;;;;10.37;7.53;;;15.80;99.90;;;;;;5086860;28;20547;-77
2022/10/19 08:57:37;;;;;;;8.37;6.30;;;15.90;99.90;;;;;;5083593;28;20422;-77
2022/10/19 09:00:35;;;;;;;7.67;5.60;;;16.00;99.90;;;;;;5086146;28;20834;-76
2022/10/19 09:03:28;;;;;;;9.33;5.77;;;16.10;99.90;;;;;;5089183;28;20580;-76
2022/10/19 09:06:23;;;;;;;11.07;5.73;;;16.20;99.90;;;;;;5087609;28;20422;-76
2022/10/19 09:09:12;;;;;;;8.60;4.60;;;16.30;99.90;;;;;;5079135;28;20482;-76
2022/10/19 09:12:03;;;;;;;6.63;5.30;;;16.30;99.90;;;;;;5080385;28;20494;-76
2022/10/19 09:14:57;;;;;;;8.63;4.60;;;16.30;99.90;;;;;;5094274;28;20481;-77
2022/10/19 09:17:42;;;;;;;5.40;4.70;;;16.40;99.90;;;;;;5094704;28;20427;-77
2022/10/19 09:20:36;;;;;;;8.40;5.90;;;16.40;99.90;;;;;;5089274;28;20425;-76
2022/10/19 09:23:27;;;;;;;5.83;5.23;;;16.40;99.90;;;;;;5085811;28;20457;-77
2022/10/19 09:26:16;;;;;;;6.47;4.60;;;16.50;99.90;;;;;;5083996;28;20525;-77
2022/10/19 09:29:06;;;;;;;5.63;4.60;;;16.60;99.90;;;;;;5092355;28;20950;-76
2022/10/19 09:31:55;;;;;;;5.27;4.53;;;16.70;99.90;;;;;;5084434;28;21082;-75
2022/10/19 09:34:45;;;;;;;6.80;4.57;;;16.80;99.90;;;;;;5084690;28;20576;-77
2022/10/19 09:37:36;;;;;;;6.07;5.03;;;16.80;99.90;;;;;;5088494;28;20421;-75
2022/10/19 09:40:25;;;;;;;5.80;4.63;;;16.80;99.90;;;;;;5087451;28;20446;-75
2022/10/19 09:43:19;;;;;;;4.50;3.90;;;16.80;99.90;;;;;;5086933;28;20454;-76
2022/10/19 09:46:11;;;;;;;4.43;4.03;;;16.80;99.90;;;;;;5083328;28;20459;-75
2022/10/19 09:48:59;;;;;;;6.50;4.07;;;16.80;99.90;;;;;;5090715;28;20512;-75
2022/10/19 09:51:50;;;;;;;5.17;3.97;;;16.80;99.90;;;;;;5087021;28;20452;-75
2022/10/19 09:54:39;;;;;;;6.23;4.17;;;16.80;99.90;;;;;;5082620;28;20853;-75
2022/10/19 09:57:24;;;;;;;5.33;3.67;;;16.70;99.90;;;;;;5090875;28;20443;-75
2022/10/19 10:00:18;;;;;;;6.93;3.70;;;16.70;99.90;;;;;;5084882;28;20448;-76
2022/10/19 10:03:05;;;;;;;10.50;5.53;;;16.80;99.90;;;;;;5084648;28;20481;-75
2022/10/19 10:05:51;;;;;;;6.43;4.40;;;16.80;99.90;;;;;;5088550;28;20639;-75
2022/10/19 10:08:38;;;;;;;4.53;3.77;;;16.90;99.90;;;;;;5083300;28;20423;-75
2022/10/19 10:11:28;;;;;;;5.20;3.87;;;16.90;99.90;;;;;;5080350;28;20585;-75
2022/10/19 10:14:19;;;;;;;5.00;3.60;;;17.10;99.90;;;;;;5081238;28;20468;-75
2022/10/19 10:17:07;;;;;;;5.57;3.73;;;17.20;99.90;;;;;;5088267;28;20490;-75
2022/10/19 10:20:05;;;;;;;4.60;3.90;;;17.40;99.90;;;;;;5090577;28;20490;-77
2022/10/19 10:23:01;;;;;;;4.77;3.77;;;17.40;99.90;;;;;;5084046;28;20457;-76
2022/10/19 10:25:49;;;;;;;5.13;3.10;;;17.40;99.90;;;;;;5083404;28;20769;-77
2022/10/19 10:28:47;;;;;;;6.10;4.03;;;17.40;99.90;;;;;;5094405;28;20422;-76
2022/10/19 10:31:33;;;;;;;6.60;3.20;;;17.40;99.90;;;;;;5084630;28;20478;-77
2022/10/19 10:34:29;;;;;;;3.30;2.80;;;17.40;99.90;;;;;;5072196;28;20486;-77
2022/10/19 10:37:20;;;;;;;4.00;3.20;;;17.40;99.90;;;;;;5074097;28;20931;-77
2022/10/19 10:40:16;;;;;;;6.30;3.30;;;17.40;99.90;;;;;;5074242;28;20444;-77
2022/10/19 10:43:05;;;;;;;5.40;3.77;;;17.50;99.90;;;;;;5091091;28;20790;-77
2022/10/19 10:45:54;;;;;;;4.23;3.60;;;17.50;99.90;;;;;;5093930;28;20396;-77
2022/10/19 10:48:42;;;;;;;4.80;3.47;;;17.50;99.90;;;;;;5093886;28;20430;-77
2022/10/19 10:51:34;;;;;;;4.73;3.57;;;17.60;99.90;;;;;;5088198;28;20445;-76
2022/10/19 10:54:22;;;;;;;6.63;3.20;;;17.60;99.90;;;;;;5082065;28;20447;-76
2022/10/19 10:57:15;;;;;;;5.30;3.17;;;17.60;99.90;;;;;;5086184;28;20421;-76
2022/10/19 11:00:06;;;;;;;5.73;2.80;;;17.70;99.90;;;;;;5091726;28;20550;-76
2022/10/19 11:03:00;;;;;;;6.70;3.83;;;17.70;99.90;;;;;;5093810;28;20568;-77
2022/10/19 11:05:51;;;;;;;4.47;3.60;;;17.80;99.90;;;;;;5096552;28;20989;-77
2022/10/19 11:08:46;;;;;;;3.70;2.70;;;17.80;99.90;;;;;;5098482;28;20754;-77
2022/10/19 11:11:36;;;;;;;3.97;2.70;;;17.90;99.90;;;;;;5093849;28;20436;-77
2022/10/19 11:14:36;;;;;;;3.50;3.00;;;17.90;99.90;;;;;;5097137;28;20508;-77
2022/10/19 11:17:25;;;;;;;6.10;3.07;;;18.00;99.90;;;;;;5098390;28;20392;-76
2022/10/19 11:20:15;;;;;;;4.00;3.50;;;18.00;99.90;;;;;;5095257;28;20484;-77
2022/10/19 11:23:11;;;;;;;3.13;2.53;;;18.00;99.90;;;;;;5087482;28;20409;-76
2022/10/19 11:26:08;;;;;;;4.67;2.80;;;18.10;99.90;;;;;;5089240;28;20446;-76
2022/10/19 11:29:09;;;;;;;4.77;3.17;;;18.20;99.90;;;;;;5096036;28;20487;-77
2022/10/19 11:31:56;;;;;;;5.20;3.40;;;18.20;99.90;;;;;;5088054;28;20794;-77
2022/10/19 11:34:55;;;;;;;4.83;3.50;;;18.20;99.90;;;;;;5097034;28;20456;-77
2022/10/19 11:37:54;;;;;;;5.60;2.80;;;18.10;99.90;;;;;;5095443;28;20726;-77
2022/10/19 11:40:45;;;;;;;4.03;3.10;;;18.10;99.90;;;;;;5087941;28;20443;-77
2022/10/19 11:43:38;;;;;;;4.40;3.33;;;18.20;99.90;;;;;;5089502;28;20417;-77
2022/10/19 11:46:30;;;;;;;3.50;2.70;;;18.30;99.90;;;;;;5082766;28;20428;-77
2022/10/19 11:49:35;;;;;;;3.40;2.50;;;18.30;99.90;;;;;;5091010;28;20450;-75
2022/10/19 11:52:28;;;;;;;5.03;2.97;;;18.40;99.90;;;;;;5075488;28;20444;-77
2022/10/19 11:55:27;;;;;;;10.83;4.20;;;18.40;99.90;;;;;;5081216;28;20814;-76
2022/10/19 11:58:34;;;;;;;2.80;2.40;;;18.40;99.90;;;;;;5077030;28;20434;-77
2022/10/19 12:01:37;;;;;;;5.10;3.33;;;18.40;99.90;;;;;;5078503;28;20518;-76
2022/10/19 12:04:42;;;;;;;3.07;2.13;;;18.40;99.90;;;;;;5077360;28;20397;-76
2022/10/19 12:07:44;;;;;;;2.50;1.80;;;18.40;99.90;;;;;;5076954;28;20427;-77
2022/10/19 12:10:40;;;;;;;3.03;2.20;;;18.30;99.90;;;;;;5082925;28;20874;-77
2022/10/19 12:13:31;;;;;;;8.27;2.40;;;18.20;99.90;;;;;;5088508;28;20413;-77
2022/10/19 12:16:19;;;;;;;3.23;2.43;;;18.10;99.90;;;;;;5096546;28;20944;-76
2022/10/19 12:19:09;;;;;;;5.97;2.80;;;18.10;99.90;;;;;;5096177;28;20408;-77
2022/10/19 12:21:59;;;;;;;3.40;2.23;;;18.10;99.90;;;;;;5076638;28;20394;-77
2022/10/19 12:24:45;;;;;;;2.87;2.30;;;18.10;99.90;;;;;;5081242;28;20397;-77
2022/10/19 12:27:34;;;;;;;2.50;1.97;;;18.30;99.90;;;;;;5076213;28;20424;-77
2022/10/19 12:30:22;;;;;;;3.77;2.20;;;18.50;99.90;;;;;;5079939;28;20494;-75
2022/10/19 12:33:17;;;;;;;3.03;2.43;;;18.60;99.90;;;;;;5088180;28;20946;-75
2022/10/19 12:36:15;;;;;;;7.40;2.60;;;18.80;99.90;;;;;;5092854;28;20520;-75
2022/10/19 12:39:13;;;;;;;5.10;2.90;;;18.90;99.90;;;;;;5091402;28;20465;-75
2022/10/19 12:42:09;;;;;;;3.97;2.67;;;19.10;99.90;;;;;;5071692;28;20422;-75
2022/10/19 12:45:24;;;;;;;4.07;2.53;;;19.20;99.90;;;;;;5072918;28;20402;-75
2022/10/19 12:48:19;;;;;;;3.20;2.83;;;19.30;99.90;;;;;;5073341;28;20508;-75
2022/10/19 12:51:13;;;;;;;3.27;2.77;;;19.40;99.90;;;;;;5085152;28;20449;-75
2022/10/19 12:54:09;;;;;;;2.90;2.30;;;19.50;99.90;;;;;;5078084;28;20933;-74
2022/10/19 12:56:56;;;;;;;3.60;2.73;;;19.60;99.90;;;;;;5083702;28;20507;-75
2022/10/19 12:59:43;;;;;;;3.50;2.40;;;19.70;99.90;;;;;;5082335;28;20462;-75
2022/10/19 13:02:34;;;;;;;3.90;2.70;;;19.80;99.90;;;;;;5072941;28;20764;-76
2022/10/19 13:05:21;;;;;;;3.50;2.80;;;19.80;99.90;;;;;;5072523;28;20422;-75
2022/10/19 13:08:08;;;;;;;3.83;2.77;;;19.80;99.90;;;;;;5072533;28;20832;-75
2022/10/19 13:11:05;;;;;;;3.20;2.70;;;19.60;99.90;;;;;;5072391;28;21075;-75
2022/10/19 13:14:00;;;;;;;3.67;3.00;;;19.50;99.90;;;;;;5072376;28;20467;-75
2022/10/19 13:17:01;;;;;;;3.93;3.00;;;19.40;99.90;;;;;;5072586;28;20427;-75
2022/10/19 13:19:48;;;;;;;4.43;3.33;;;19.30;99.90;;;;;;5080868;28;20464;-75
2022/10/19 13:22:34;;;;;;;3.63;3.20;;;19.00;99.90;;;;;;5089731;28;20397;-75
2022/10/19 13:25:28;;;;;;;5.10;3.53;;;18.90;99.90;;;;;;5080768;28;20497;-75
2022/10/19 13:28:51;;;;;;;4.23;3.40;;;18.80;99.90;;;;;;5071914;28;20421;-75
2022/10/19 13:31:37;;;;;;;7.13;3.40;;;18.60;99.90;;;;;;5064862;28;20460;-75
2022/10/19 13:34:25;;;;;;;3.17;2.80;;;18.60;99.90;;;;;;5071618;28;20872;-75
2022/10/19 13:37:13;;;;;;;6.50;3.10;;;18.60;99.90;;;;;;5072075;28;20446;-75
2022/10/19 13:39:58;;;;;;;3.40;3.10;;;18.60;99.90;;;;;;5078438;28;21257;-75
2022/10/19 13:42:44;;;;;;;3.90;3.20;;;18.60;99.90;;;;;;5072166;28;20399;-75
2022/10/19 13:45:29;;;;;;;3.50;2.83;;;18.70;99.90;;;;;;5071259;28;20389;-75
2022/10/19 13:48:24;;;;;;;6.77;3.60;;;18.80;99.90;;;;;;5073905;28;20930;-75
2022/10/19 13:51:18;;;;;;;4.80;3.20;;;18.90;99.90;;;;;;5080647;28;20413;-75
2022/10/19 13:54:16;;;;;;;7.93;3.30;;;19.10;99.90;;;;;;5076243;28;20430;-75
2022/10/19 13:57:22;;;;;;;3.53;2.73;;;19.20;99.90;;;;;;5083444;28;20933;-76
2022/10/19 14:00:16;;;;;;;4.07;3.03;;;19.30;99.90;;;;;;5082877;28;21045;-75
2022/10/19 14:03:25;;;;;;;4.30;3.20;;;19.50;99.90;;;;;;5071510;28;20422;-75
2022/10/19 14:06:24;;;;;;;4.47;2.70;;;19.70;99.90;;;;;;5082218;28;20428;-75
2022/10/19 14:09:35;;;;;;;4.80;3.30;;;19.80;99.90;;;;;;5077281;28;20425;-75
2022/10/19 14:12:24;;;;;;;4.50;3.47;;;19.70;99.90;;;;;;5084732;28;20910;-75
2022/10/19 14:15:26;;;;;;;4.27;3.57;;;19.40;99.90;;;;;;5087244;28;20503;-75
2022/10/19 14:18:23;;;;;;;4.50;2.77;;;19.00;99.90;;;;;;5078516;28;20446;-75
2022/10/19 14:21:10;;;;;;;4.13;2.90;;;18.70;99.90;;;;;;5085028;28;20437;-75
2022/10/19 14:23:55;;;;;;;7.97;3.23;;;18.50;99.90;;;;;;5088205;28;20422;-75
2022/10/19 14:26:43;;;;;;;4.77;4.07;;;18.30;99.90;;;;;;5089854;28;20409;-75
2022/10/19 14:29:29;;;;;;;4.30;3.00;;;18.20;99.90;;;;;;5080713;28;20441;-75
2022/10/19 14:32:15;;;;;;;4.47;3.70;;;18.00;99.90;;;;;;5085407;28;20409;-75
2022/10/19 14:35:05;;;;;;;7.17;5.13;;;17.90;99.90;;;;;;5081567;28;20923;-75
2022/10/19 14:37:51;;;;;;;13.10;5.00;;;17.80;99.90;;;;;;5074897;28;20461;-75